Raisin City, California
Current Conditions -  °F | °C
As of 4:53 AM on Tuesday 21 Oct 2014 (Local Time) from KFAT Reporting Station
Scattered Clouds Scattered Clouds  
Wind Chill: 60°   Ceiling: Unl
Heat Index: 60°   Visibility: 10mi
Dew Point: 50°   Wind: 15mph
Humidity: 69%   Direction: 310°NW
Pressure: 30.02"   Gusts: NA
Location:  36.6025°N, 119.898°W
Report Text: KFAT 211153Z 31013KT 10SM SCT070 16/10 A3002 RMK AO2 SLP161 T01560100 10189 20156 55005
Loading
Personal Weather Stations






























Interactive Weather Map
Tropical Storm Tracking
New forecast layout! Learn more

10-Day Weather Forecast

Advertisements
Track Severe Weather on mobile